createdAt,value
2018-04-30T00:00:01.366Z,11.3
2018-04-30T00:05:01.519Z,11.4
2018-04-30T00:10:01.389Z,11.3
2018-04-30T00:15:01.220Z,11.3
2018-04-30T00:20:01.943Z,11.3
2018-04-30T00:25:01.363Z,11.2
2018-04-30T00:30:01.920Z,11.2
2018-04-30T00:35:01.628Z,11.2
2018-04-30T00:40:01.508Z,11.2
2018-04-30T00:45:01.836Z,11.2
2018-04-30T00:50:02.049Z,11.2
2018-04-30T00:55:01.210Z,11.2
2018-04-30T01:00:01.245Z,11.1
2018-04-30T01:05:01.730Z,11
2018-04-30T01:10:01.501Z,11
2018-04-30T01:15:01.506Z,10.9
2018-04-30T01:20:01.862Z,10.9
2018-04-30T01:25:02.055Z,10.9
2018-04-30T01:30:02.064Z,11
2018-04-30T01:35:01.165Z,11
2018-04-30T01:40:02.342Z,11
2018-04-30T01:45:02.026Z,11
2018-04-30T01:50:02.132Z,11
2018-04-30T01:55:02.072Z,11
2018-04-30T02:00:01.598Z,11
2018-04-30T02:05:02.129Z,11
2018-04-30T02:10:01.390Z,11.1
2018-04-30T02:15:02.027Z,11.2
2018-04-30T02:20:01.352Z,11.2
2018-04-30T02:25:02.022Z,11.2
2018-04-30T02:30:01.539Z,11.3
2018-04-30T02:35:01.983Z,11.3
2018-04-30T02:40:01.851Z,11.3
2018-04-30T02:45:02.434Z,11.3
2018-04-30T02:50:01.288Z,11.3
2018-04-30T02:55:01.613Z,11.3
2018-04-30T03:00:01.974Z,11.3
2018-04-30T03:05:01.756Z,11.3
2018-04-30T03:10:01.494Z,11.3
2018-04-30T03:15:01.727Z,11.3
2018-04-30T03:20:02.008Z,11.3
2018-04-30T03:25:01.961Z,11.3
2018-04-30T03:30:01.227Z,11.3
2018-04-30T03:35:01.707Z,11.3
2018-04-30T03:40:01.826Z,11.3
2018-04-30T03:45:01.542Z,11.3
2018-04-30T03:50:01.970Z,11.4
2018-04-30T03:55:01.617Z,11.5
2018-04-30T04:00:02.031Z,11.6
2018-04-30T04:05:02.194Z,11.6
2018-04-30T04:10:01.201Z,11.8
2018-04-30T04:15:02.169Z,11.9
2018-04-30T04:20:01.961Z,11.9
2018-04-30T04:25:02.126Z,12
2018-04-30T04:30:01.231Z,12.1
2018-04-30T04:35:01.598Z,12
2018-04-30T04:40:01.464Z,12
2018-04-30T04:45:02.191Z,12.1
2018-04-30T04:50:01.279Z,12
2018-04-30T04:55:01.391Z,12.1
2018-04-30T05:00:01.412Z,12.1
2018-04-30T05:05:01.503Z,12.1
2018-04-30T05:10:01.314Z,12.1
2018-04-30T05:15:01.912Z,12
2018-04-30T05:20:01.523Z,12.1
2018-04-30T05:25:01.364Z,12.1
2018-04-30T05:30:02.151Z,12.1
2018-04-30T05:35:01.971Z,12.2
2018-04-30T05:40:02.131Z,12.3
2018-04-30T05:45:01.798Z,12.3
2018-04-30T05:50:02.044Z,12.3
2018-04-30T05:55:01.950Z,12.3
2018-04-30T06:00:01.934Z,12.4
2018-04-30T06:05:01.780Z,12.6
2018-04-30T06:10:02.126Z,12.8
2018-04-30T06:15:01.470Z,13
2018-04-30T06:20:01.527Z,13.2
2018-04-30T06:25:02.063Z,13.2
2018-04-30T06:30:01.709Z,13.2
2018-04-30T06:35:02.274Z,13.3
2018-04-30T06:40:01.340Z,13.4
2018-04-30T06:45:01.465Z,13.6
2018-04-30T06:50:01.806Z,13.5
2018-04-30T06:55:01.721Z,13.7
2018-04-30T07:00:01.432Z,14.2
2018-04-30T07:05:01.491Z,14.4
2018-04-30T07:10:01.720Z,14.7
2018-04-30T07:15:01.668Z,14.3
2018-04-30T07:20:01.574Z,13.8
2018-04-30T07:25:02.116Z,13.7
2018-04-30T07:30:02.073Z,13.5
2018-04-30T07:35:01.460Z,13.5
2018-04-30T07:40:01.515Z,13.5
2018-04-30T07:45:02.408Z,13.2
2018-04-30T07:50:01.447Z,13
2018-04-30T07:55:01.912Z,12.7
2018-04-30T08:00:01.503Z,12.6
2018-04-30T08:05:01.573Z,12.5
2018-04-30T08:10:01.881Z,12.6
2018-04-30T08:15:02.120Z,12.6
2018-04-30T08:20:01.296Z,12.8
2018-04-30T08:25:01.939Z,13.3
2018-04-30T08:30:01.614Z,13.8
2018-04-30T08:35:01.906Z,15
2018-04-30T08:40:02.346Z,15.3
2018-04-30T08:45:01.254Z,15.3
2018-04-30T08:50:01.489Z,15.5
2018-04-30T08:55:01.576Z,16.5
2018-04-30T09:00:01.971Z,16.8
2018-04-30T09:05:01.550Z,17
2018-04-30T09:10:01.682Z,17
2018-04-30T09:15:01.719Z,16.9
2018-04-30T09:20:02.083Z,17.1
2018-04-30T09:25:02.028Z,17.7
2018-04-30T09:30:01.688Z,18.3
2018-04-30T09:35:02.485Z,18.8
2018-04-30T09:40:01.351Z,18.8
2018-04-30T09:45:02.141Z,18.6
2018-04-30T09:50:01.253Z,18.7
2018-04-30T09:55:01.578Z,18.7
2018-04-30T10:00:01.407Z,19.3
2018-04-30T10:05:01.245Z,18.8
2018-04-30T10:10:01.634Z,18.8
2018-04-30T10:15:01.564Z,18.6
2018-04-30T10:20:01.385Z,17.7
2018-04-30T10:25:01.520Z,17.3
2018-04-30T10:30:02.098Z,17
2018-04-30T10:35:01.803Z,16.6
2018-04-30T10:40:02.389Z,16.5
2018-04-30T10:45:01.253Z,16.2
2018-04-30T10:50:01.383Z,16.1
2018-04-30T10:55:01.521Z,16
2018-04-30T11:00:01.771Z,16
2018-04-30T11:05:02.075Z,16
2018-04-30T11:10:01.196Z,15.8
2018-04-30T11:15:01.831Z,15.6
2018-04-30T11:20:01.614Z,15.5
2018-04-30T11:25:01.681Z,15.6
2018-04-30T11:30:01.660Z,15.5
2018-04-30T11:35:01.456Z,15.6
2018-04-30T11:40:01.359Z,15.5
2018-04-30T11:45:02.009Z,15.4
2018-04-30T11:50:02.087Z,15.4
2018-04-30T11:55:02.048Z,15.3
2018-04-30T12:00:01.469Z,15.3
2018-04-30T12:05:02.324Z,15.4
2018-04-30T12:10:01.492Z,15.4
2018-04-30T12:15:01.196Z,15.7
2018-04-30T12:20:02.053Z,15.7
2018-04-30T12:25:01.723Z,16
2018-04-30T12:30:01.336Z,16.2
2018-04-30T12:35:02.169Z,16.3
2018-04-30T12:40:02.566Z,16.4
2018-04-30T12:45:01.920Z,16.5
2018-04-30T12:50:02.007Z,16.6
2018-04-30T12:55:01.178Z,16.8
2018-04-30T13:00:02.147Z,17.1
2018-04-30T13:05:01.390Z,17.1
2018-04-30T13:10:01.886Z,17.1
2018-04-30T13:15:01.548Z,16.9
2018-04-30T13:20:02.295Z,16.8
2018-04-30T13:25:01.444Z,16.7
2018-04-30T13:30:01.909Z,16.5
2018-04-30T13:35:01.777Z,16.3
2018-04-30T13:40:02.487Z,16
2018-04-30T13:45:02.122Z,15.8
2018-04-30T13:50:01.610Z,15.7
2018-04-30T13:55:01.495Z,15.7
2018-04-30T14:00:02.140Z,15.4
2018-04-30T14:05:01.978Z,15.3
2018-04-30T14:10:01.903Z,15.2
2018-04-30T14:15:02.058Z,15
2018-04-30T14:20:02.373Z,14.7
2018-04-30T14:25:01.279Z,14.6
2018-04-30T14:30:02.172Z,14.6
2018-04-30T14:35:01.164Z,14.6
2018-04-30T14:40:02.054Z,14.6
2018-04-30T14:45:01.431Z,14.5
2018-04-30T14:50:02.104Z,14.5
2018-04-30T14:55:01.644Z,14.4
2018-04-30T15:00:02.293Z,14.3
2018-04-30T15:05:01.441Z,14.3
2018-04-30T15:10:02.145Z,14.3
2018-04-30T15:15:02.013Z,14.4
2018-04-30T15:20:01.263Z,14.5
2018-04-30T15:25:01.393Z,14.8
2018-04-30T15:30:01.998Z,15.6
2018-04-30T15:35:01.584Z,15.9
2018-04-30T15:40:01.462Z,16.3
2018-04-30T15:45:01.648Z,16.6
2018-04-30T15:50:02.569Z,16.7
2018-04-30T15:55:01.860Z,16.8
2018-04-30T16:00:01.492Z,17
2018-04-30T16:05:01.514Z,17.1
2018-04-30T16:10:01.902Z,17.1
2018-04-30T16:15:01.869Z,17.3
2018-04-30T16:20:01.296Z,17.3
2018-04-30T16:25:02.041Z,17.5
2018-04-30T16:30:01.329Z,17.6
2018-04-30T16:35:01.378Z,17.2
2018-04-30T16:40:01.723Z,17.2
2018-04-30T16:45:01.465Z,17.4
2018-04-30T16:50:01.560Z,17.4
2018-04-30T16:55:02.213Z,17.4
2018-04-30T17:00:01.921Z,17.5
2018-04-30T17:05:01.298Z,17.4
2018-04-30T17:10:02.784Z,17.2
2018-04-30T17:15:01.743Z,16.9
2018-04-30T17:20:01.946Z,16.7
2018-04-30T17:25:01.312Z,16.5
2018-04-30T17:30:02.266Z,16.5
2018-04-30T17:35:01.810Z,16.5
2018-04-30T17:40:02.108Z,16.5
2018-04-30T17:45:01.701Z,16.5
2018-04-30T17:50:02.463Z,16.6
2018-04-30T17:55:02.149Z,16.5
2018-04-30T18:00:02.219Z,16.5
2018-04-30T18:05:01.606Z,16.4
2018-04-30T18:10:02.220Z,16.3
2018-04-30T18:15:01.578Z,16.2
2018-04-30T18:20:02.284Z,16
2018-04-30T18:25:01.935Z,15.8
2018-04-30T18:30:02.059Z,15.7
2018-04-30T18:35:01.273Z,15.7
2018-04-30T18:40:01.822Z,15.5
2018-04-30T18:45:02.478Z,15.4
2018-04-30T18:50:01.214Z,15.4
2018-04-30T18:55:01.711Z,15.2
2018-04-30T19:00:01.907Z,15.1
2018-04-30T19:05:02.039Z,14.9
2018-04-30T19:10:02.469Z,14.8
2018-04-30T19:15:01.415Z,14.7
2018-04-30T19:20:02.084Z,14.6
2018-04-30T19:25:02.159Z,14.6
2018-04-30T19:30:01.558Z,14.6
2018-04-30T19:35:02.142Z,14.6
2018-04-30T19:40:02.276Z,14.5
2018-04-30T19:45:02.329Z,14.4
2018-04-30T19:50:01.948Z,14.3
2018-04-30T19:55:01.842Z,14.3
2018-04-30T20:00:02.306Z,14.3
2018-04-30T20:05:02.033Z,14.2
2018-04-30T20:10:01.460Z,14.3
2018-04-30T20:15:02.078Z,14.3
2018-04-30T20:20:01.814Z,14.3
2018-04-30T20:25:01.229Z,14.2
2018-04-30T20:30:01.914Z,14.2
2018-04-30T20:35:01.762Z,14.1
2018-04-30T20:40:01.316Z,14
2018-04-30T20:45:01.497Z,13.8
2018-04-30T20:50:02.191Z,13.8
2018-04-30T20:55:01.305Z,13.7
2018-04-30T21:00:02.395Z,13.4
2018-04-30T21:05:01.369Z,13.3
2018-04-30T21:10:01.341Z,13.3
2018-04-30T21:15:02.394Z,13.2
2018-04-30T21:20:01.379Z,13.2
2018-04-30T21:25:01.563Z,13.1
2018-04-30T21:30:02.503Z,12.7
2018-04-30T21:35:01.147Z,12.6
2018-04-30T21:40:01.248Z,12.6
2018-04-30T21:45:01.921Z,12.6
2018-04-30T21:50:02.209Z,12.5
2018-04-30T21:55:02.055Z,12.5
2018-04-30T22:00:01.707Z,12.4
2018-04-30T22:05:01.225Z,12.3
2018-04-30T22:10:01.427Z,12.2
2018-04-30T22:15:01.801Z,12
2018-04-30T22:20:01.620Z,12
2018-04-30T22:25:02.117Z,11.9
2018-04-30T22:30:01.606Z,11.9
2018-04-30T22:35:01.623Z,11.8
2018-04-30T22:40:01.830Z,11.9
2018-04-30T22:45:01.727Z,11.9
2018-04-30T22:50:01.631Z,12
2018-04-30T22:55:01.222Z,12.1
2018-04-30T23:00:01.939Z,12.1
2018-04-30T23:05:01.466Z,12.1
2018-04-30T23:10:01.646Z,12
2018-04-30T23:15:02.174Z,11.9
2018-04-30T23:20:01.450Z,11.9
2018-04-30T23:25:02.067Z,11.8
2018-04-30T23:30:01.584Z,11.8
2018-04-30T23:35:02.184Z,11.8
2018-04-30T23:40:02.182Z,11.7
2018-04-30T23:45:01.946Z,11.7
2018-04-30T23:50:01.273Z,11.6
2018-04-30T23:55:02.119Z,11.6
